^^
Station Historical Data
Daily Summary for January 7, 2018 Units:  Metric    English   Both
« Previous Day
Next Day »
Daily Weekly Monthly Yearly Custom
  High: Low: Average:
Temperature: -17.8 °C 19.6 °C 23.4 °C
Dew Point: -17.8 °C 4.9 °C 9 °C
Humidity: Humidity% 23% 41%
Wind Speed: 0km/h 0km/h 13.4km/h
Wind Gust: 0km/h - -
Wind- - SW
Pressure: 0 hPa 1005.6 hPa -
Precipitation: 0 mm    
Historical Graphs
 
 
Tabular Data for January 7, 2018
Time Temperature Dew Point Pressure Wind Wind Speed Wind Gust Humidity Rainfall Rate (Hourly) solar Conditions
-17.8 °C -17.8 °C 0 hPa Calm     Humidity% 0 mm SolarRadiationWatts/m^2 W/m2 Conditions
00:14 23.9 °C 8.7 °C 1005.6 hPa SSW 22.7 km/h 29 km/h 38% 0 mm 0.0 W/m2
00:19 23.8 °C 8.6 °C 1005.6 hPa SSW 20.9 km/h 29 km/h 38% 0 mm 0.0 W/m2
00:24 23.8 °C 8.2 °C 1005.6 hPa SSW 19.5 km/h 32.2 km/h 37% 0 mm 0.0 W/m2
00:50 23.3 °C 8.6 °C 1005.6 hPa South 19.5 km/h 25.7 km/h 39% 0 mm 0.0 W/m2
01:00 23.2 °C 8.9 °C 1005.6 hPa SSW 28.8 km/h 29 km/h 40% 0 mm 0.0 W/m2
01:10 22.9 °C 9.7 °C 1005.6 hPa SSW 24.1 km/h 30.6 km/h 43% 0 mm 0.0 W/m2
01:20 22.8 °C 9.9 °C 1005.6 hPa South 20.9 km/h 27.4 km/h 44% 0 mm 0.0 W/m2
01:25 22.7 °C 10.2 °C 1005.6 hPa SSW 19.5 km/h 29 km/h 45% 0 mm 0.0 W/m2
01:35 22.5 °C 10 °C 1006 hPa South 20.9 km/h 24.1 km/h 45% 0 mm 0.0 W/m2
01:40 22.4 °C 9.9 °C 1005.6 hPa SSW 13 km/h 19.3 km/h 45% 0 mm 0.0 W/m2
01:45 22.4 °C 9.9 °C 1005.6 hPa SSW 17.7 km/h 17.7 km/h 45% 0 mm 0.0 W/m2
01:50 22.3 °C 9.8 °C 1005.6 hPa South 16.3 km/h 22.5 km/h 45% 0 mm 0.0 W/m2
01:55 22.3 °C 9.8 °C 1005.6 hPa South 13 km/h 20.9 km/h 45% 0 mm 0.0 W/m2
02:00 22.2 °C 10 °C 1005.6 hPa SSW 14.3 km/h 24.1 km/h 46% 0 mm 0.0 W/m2
02:10 22.1 °C 9.9 °C 1005.6 hPa SSW 16.3 km/h 22.5 km/h 46% 0 mm 0.0 W/m2
02:20 22 °C 10.2 °C 1005.6 hPa SSW 14.3 km/h 20.9 km/h 47% 0 mm 0.0 W/m2
02:35 21.9 °C 10.1 °C 1006 hPa SSW 16.3 km/h 17.7 km/h 47% 0 mm 0.0 W/m2
02:45 21.8 °C 10.6 °C 1006.3 hPa WSW 17.7 km/h 20.9 km/h 49% 0 mm 0.0 W/m2
02:50 21.6 °C 10.4 °C 1006.3 hPa WSW 7.9 km/h 17.7 km/h 49% 0 mm 0.0 W/m2
03:16 21.2 °C 10.7 °C 1006.3 hPa SW 13 km/h 19.3 km/h 51% 0 mm 0.0 W/m2
03:21 21.1 °C 10.6 °C 1006.3 hPa SW 16.3 km/h 16.3 km/h 51% 0 mm 0.0 W/m2
03:31 21.1 °C 10.6 °C 1006 hPa SW 19.5 km/h 20.9 km/h 51% 0 mm 0.0 W/m2
03:36 21.1 °C 10.6 °C 1006 hPa SW 14.3 km/h 20.9 km/h 51% 0 mm 0.0 W/m2
03:41 21 °C 10.8 °C 1006 hPa SW 17.7 km/h 19.3 km/h 52% 0 mm 0.0 W/m2
03:46 20.9 °C 10.7 °C 1006 hPa SW 11.1 km/h 19.3 km/h 52% 0 mm 0.0 W/m2
03:51 20.8 °C 10.6 °C 1006 hPa SW 13 km/h 19.3 km/h 52% 0 mm 0.0 W/m2
03:56 20.8 °C 10.9 °C 1006 hPa SW 11.1 km/h 19.3 km/h 53% 0 mm 0.0 W/m2
04:01 20.8 °C 10.6 °C 1006 hPa SSW 11.1 km/h 14.5 km/h 52% 0 mm 0.0 W/m2
04:11 20.7 °C 10.8 °C 1006.3 hPa SSW 14.3 km/h 17.7 km/h 53% 0 mm 0.0 W/m2
04:21 20.6 °C 10.7 °C 1006.3 hPa SSW 14.3 km/h 17.7 km/h 53% 0 mm 0.0 W/m2
04:36 20.4 °C 10.8 °C 1006 hPa South 13 km/h 17.7 km/h 54% 0 mm 0.0 W/m2
04:46 20.3 °C 11 °C 1006 hPa South 16.3 km/h 20.9 km/h 55% 0 mm 0.0 W/m2
04:52 20.2 °C 10.9 °C 1006 hPa South 13 km/h 19.3 km/h 55% 0 mm 0.0 W/m2
04:57 20.2 °C 10.9 °C 1006 hPa South 13 km/h 16.1 km/h 55% 0 mm 0.0 W/m2
05:02 20.1 °C 11 °C 1006 hPa South 9.7 km/h 14.5 km/h 56% 0 mm 0.0 W/m2
05:07 20.1 °C 11 °C 1006.3 hPa SSW 14.3 km/h 16.1 km/h 56% 0 mm 0.0 W/m2
05:12 20.1 °C 11 °C 1006 hPa SSW 11.1 km/h 16.1 km/h 56% 0 mm 0.0 W/m2
05:22 19.9 °C 11.1 °C 1006 hPa South 14.3 km/h 19.3 km/h 57% 0 mm 0.0 W/m2
05:42 19.7 °C 10.9 °C 1006.3 hPa SSW 9.7 km/h 14.5 km/h 57% 0 mm 0.0 W/m2
05:47 19.7 °C 10.9 °C 1006.3 hPa SSW 14.3 km/h 14.5 km/h 57% 0 mm 0.0 W/m2
05:52 19.6 °C 10.8 °C 1006.3 hPa SSW 16.3 km/h 16.3 km/h 57% 0 mm 0.0 W/m2
05:57 19.6 °C 10.8 °C 1006.3 hPa SSW 16.3 km/h 17.7 km/h 57% 0 mm 0.0 W/m2
06:02 19.6 °C 10.8 °C 1006.7 hPa SSW 16.3 km/h 17.7 km/h 57% 0 mm 5.0 W/m2
06:07 19.7 °C 10.7 °C 1006.7 hPa SSW 16.3 km/h 19.3 km/h 56% 0 mm 7.0 W/m2
06:12 19.7 °C 10.7 °C 1007 hPa SW 9.7 km/h 20.9 km/h 56% 0 mm 14.0 W/m2
06:22 19.8 °C 10.8 °C 1006.7 hPa SSW 14.3 km/h 14.5 km/h 56% 0 mm 39.0 W/m2
06:27 19.9 °C 10.6 °C 1007 hPa SSW 9.7 km/h 17.7 km/h 55% 0 mm 37.0 W/m2
06:32 20.1 °C 10.5 °C 1007 hPa SSW 13 km/h 17.7 km/h 54% 0 mm 35.0 W/m2
06:57 20.6 °C 10.7 °C 1007.3 hPa South 14.3 km/h 17.7 km/h 53% 0 mm 54.0 W/m2
07:09 20.7 °C 10.5 °C 1007.3 hPa South 11.1 km/h 16.1 km/h 52% 0 mm 44.0 W/m2
07:15 20.7 °C 10.2 °C 1007.3 hPa South 13 km/h 16.1 km/h 51% 0 mm 62.0 W/m2
07:29 20.9 °C 10.1 °C 1007.3 hPa South 14.3 km/h 20.9 km/h 50% 0 mm 88.0 W/m2
08:16 22.2 °C 9.7 °C 1007.3 hPa South 7.9 km/h 9.7 km/h 45% 0 mm 114.0 W/m2
08:23 22.6 °C 9.7 °C 1007.3 hPa South 3.2 km/h 8 km/h 44% 0 mm 153.0 W/m2
08:33 22.8 °C 9.2 °C 1007 hPa SSE 7.9 km/h 9.7 km/h 42% 0 mm 97.0 W/m2
08:58 23.7 °C 9.3 °C 1006.3 hPa South 11.1 km/h 17.7 km/h 40% 0 mm 135.0 W/m2
09:14 24.5 °C 8.9 °C 1006.3 hPa SW 19.5 km/h 22.5 km/h 37% 0 mm 151.0 W/m2
10:03 24.9 °C 8.4 °C 1006.7 hPa SW 11.1 km/h 14.5 km/h 35% 0 mm 299.0 W/m2
10:11 26.3 °C 8.3 °C 1007 hPa WSW 17.7 km/h 29 km/h 32% 0 mm 311.0 W/m2
10:27 26.2 °C 7.3 °C 1008 hPa West 9.7 km/h 11.3 km/h 30% 0 mm 339.0 W/m2
11:06 26.9 °C 7.4 °C 1008.4 hPa West 4.7 km/h 8 km/h 29% 0 mm 355.0 W/m2
11:24 27.2 °C 7.1 °C 1008 hPa Calm     28% 0 mm 554.0 W/m2
11:30 27.4 °C 6.7 °C 1008.4 hPa Calm     27% 0 mm 241.0 W/m2
11:45 27.5 °C 5.7 °C 1008 hPa West 13 km/h 17.7 km/h 25% 0 mm 211.0 W/m2
11:55 27.6 °C 5.2 °C 1008.4 hPa West 9.7 km/h 17.7 km/h 24% 0 mm 213.0 W/m2
12:00 27.3 °C 7.7 °C 1008.4 hPa West 9.7 km/h 12.9 km/h 29% 0 mm 216.0 W/m2
12:08 27.1 °C 7.5 °C 1008.4 hPa West 13 km/h 19.3 km/h 29% 0 mm 237.0 W/m2
12:15 27 °C 7.9 °C 1008.7 hPa WSW 7.9 km/h 11.3 km/h 30% 0 mm 292.0 W/m2
12:47 27.9 °C 4.9 °C 1008.4 hPa Calm     23% 0 mm 156.0 W/m2
12:56 28.3 °C 6.4 °C 1008 hPa WSW 11.1 km/h 17.7 km/h 25% 0 mm 229.0 W/m2
13:11 28.3 °C 7 °C 1007.7 hPa WSW 9.7 km/h 14.5 km/h 26% 0 mm 202.0 W/m2
13:57 28.7 °C 7.3 °C 1007.7 hPa West 11.1 km/h 19.3 km/h 26% 0 mm 113.0 W/m2
14:12 28.9 °C 8 °C 1007.3 hPa WNW 16.3 km/h 24.1 km/h 27% 0 mm 93.0 W/m2
14:24 29.3 °C 8.4 °C 1007 hPa NW 9.7 km/h 20.9 km/h 27% 0 mm 102.0 W/m2
14:34 29.5 °C 8 °C 1006.7 hPa NW 13 km/h 19.3 km/h 26% 0 mm 77.0 W/m2
14:45 29.8 °C 7.7 °C 1006.7 hPa NW 24.1 km/h 24.1 km/h 25% 0 mm 60.0 W/m2
14:55 29.8 °C 7.7 °C 1006.3 hPa NNW 11.1 km/h 22.5 km/h 25% 0 mm 60.0 W/m2
15:05 29.6 °C 8.6 °C 1005.6 hPa North 20.9 km/h 20.9 km/h 27% 0 mm 77.0 W/m2
15:37 29.4 °C 8.4 °C 1006 hPa NW 6.4 km/h 12.9 km/h 27% 0 mm 60.0 W/m2
16:53 29.3 °C 8.4 °C 1006 hPa West 11.1 km/h 22.5 km/h 27% 0 mm 148.0 W/m2
17:13 27.9 °C 8.2 °C 1006.3 hPa SW 16.3 km/h 17.7 km/h 29% 0 mm 137.0 W/m2
17:24 27.8 °C 8.1 °C 1006.3 hPa SW 13 km/h 14.5 km/h 29% 0 mm 128.0 W/m2
17:40 27.9 °C 8.2 °C 1006 hPa SW 13 km/h 14.5 km/h 29% 0 mm 113.0 W/m2
17:55 28.1 °C 8.4 °C 1006 hPa SW 7.9 km/h 9.7 km/h 29% 0 mm 135.0 W/m2
18:10 28.2 °C 8 °C 1005.6 hPa SW 7.9 km/h 12.9 km/h 28% 0 mm 100.0 W/m2
18:40 28.2 °C 8 °C 1005.6 hPa SW 11.1 km/h 11.3 km/h 28% 0 mm 72.0 W/m2
18:49 28.1 °C 7.9 °C 1005.6 hPa SW 7.9 km/h 12.9 km/h 28% 0 mm 69.0 W/m2
19:24 27.9 °C 7.2 °C 1006.3 hPa SW 11.1 km/h 17.7 km/h 27% 0 mm 33.0 W/m2
19:48 27 °C 7.9 °C 1006.3 hPa SW 17.7 km/h 20.9 km/h 30% 0 mm 9.0 W/m2
19:53 26.8 °C 7.8 °C 1006.3 hPa SW 20.9 km/h 20.9 km/h 30% 0 mm 7.0 W/m2
20:21 25.9 °C 9.3 °C 1006.7 hPa SW 17.7 km/h 19.3 km/h 35% 0 mm 0.0 W/m2
20:49 25.1 °C 9.8 °C 1007.3 hPa SW 13 km/h 19.3 km/h 38% 0 mm 0.0 W/m2
20:57 24.7 °C 10.2 °C 1007.3 hPa SW 14.3 km/h 22.5 km/h 40% 0 mm 0.0 W/m2
Canyon Roadhouse, Fishriver Canyon, Namibia
Compliments of Weather Underground - 2 mb